Time;durP1;ratioP1;P1;durP2;ratioP2;P2;SDS_P1;SDS_P2;PMS_P1;PMS_P2;Temp;Humidity;BMP_temperature;BMP_pressure;BME280_temperature;BME280_humidity;BME280_pressure;Samples;Min_cycle;Max_cycle;Signal;HPM_P1;HPM_P2
2021/12/03 00:00:27;;;;;;;5.28;2.33;;;0.90;99.90;;;;;;5096047;28;20096;-68
2021/12/03 00:02:53;;;;;;;7.10;2.58;;;0.90;99.90;;;;;;5075743;28;20407;-68
2021/12/03 00:05:20;;;;;;;8.07;3.10;;;0.80;99.90;;;;;;5075708;28;20037;-69
2021/12/03 00:07:46;;;;;;;8.10;2.47;;;0.90;99.90;;;;;;5075734;28;20043;-68
2021/12/03 00:10:15;;;;;;;6.75;2.42;;;0.90;99.90;;;;;;5082335;28;20043;-69
2021/12/03 00:12:42;;;;;;;6.47;2.75;;;0.80;99.90;;;;;;5077658;28;20039;-68
2021/12/03 00:15:10;;;;;;;9.02;3.10;;;0.90;99.90;;;;;;5095698;28;20040;-68
2021/12/03 00:17:36;;;;;;;5.68;2.60;;;0.80;99.90;;;;;;5095936;28;20040;-68
2021/12/03 00:20:06;;;;;;;9.27;2.88;;;0.80;99.90;;;;;;5090407;28;20681;-68
2021/12/03 00:22:31;;;;;;;7.22;2.90;;;0.80;99.90;;;;;;5075536;28;20071;-68
2021/12/03 00:24:57;;;;;;;5.00;2.20;;;0.80;99.90;;;;;;5075515;28;20515;-68
2021/12/03 00:27:23;;;;;;;6.85;2.88;;;0.80;99.90;;;;;;5075530;28;20185;-68
2021/12/03 00:29:49;;;;;;;4.25;2.40;;;0.80;99.90;;;;;;5075453;28;20028;-69
2021/12/03 00:32:15;;;;;;;6.03;3.15;;;0.80;99.90;;;;;;5075543;28;20044;-68
2021/12/03 00:34:41;;;;;;;5.05;2.70;;;0.70;99.90;;;;;;5075390;28;20039;-68
2021/12/03 00:37:06;;;;;;;7.90;3.05;;;0.70;99.90;;;;;;5057407;28;20083;-68
2021/12/03 00:39:32;;;;;;;5.78;2.88;;;0.70;99.90;;;;;;5057271;28;20517;-68
2021/12/03 00:42:01;;;;;;;5.82;2.97;;;0.70;99.90;;;;;;5075285;28;20053;-68
2021/12/03 00:44:29;;;;;;;5.28;2.75;;;0.70;99.90;;;;;;5056966;28;20033;-68
2021/12/03 00:46:55;;;;;;;7.38;3.00;;;0.70;99.90;;;;;;5075030;28;20060;-68
2021/12/03 00:49:21;;;;;;;9.15;2.78;;;0.60;99.90;;;;;;5074968;28;20450;-68
2021/12/03 00:51:47;;;;;;;5.90;3.05;;;0.70;99.90;;;;;;5094818;28;20122;-68
2021/12/03 00:54:14;;;;;;;9.32;3.40;;;0.70;99.90;;;;;;5094699;28;20094;-69
2021/12/03 00:56:40;;;;;;;3.88;2.83;;;0.70;99.90;;;;;;5095319;28;20537;-69
2021/12/03 00:59:06;;;;;;;8.70;3.10;;;0.70;99.90;;;;;;5095095;28;20028;-68
2021/12/03 01:01:32;;;;;;;4.70;2.92;;;0.60;99.90;;;;;;5095164;28;20056;-68
2021/12/03 01:03:59;;;;;;;8.80;3.13;;;0.70;99.90;;;;;;5095036;28;20119;-68
2021/12/03 01:06:25;;;;;;;5.85;3.17;;;0.70;99.90;;;;;;5095110;28;20063;-68
2021/12/03 01:08:50;;;;;;;7.28;2.83;;;0.70;99.90;;;;;;5095148;28;20503;-68
2021/12/03 01:11:17;;;;;;;6.60;2.75;;;0.70;99.90;;;;;;5095159;28;20407;-68
2021/12/03 01:13:44;;;;;;;6.22;2.42;;;0.70;99.90;;;;;;5094793;28;20050;-69
2021/12/03 01:16:11;;;;;;;4.32;2.28;;;0.80;99.90;;;;;;5094827;28;20054;-68
2021/12/03 01:18:39;;;;;;;5.65;2.58;;;0.80;99.90;;;;;;5094346;28;20461;-68
2021/12/03 01:21:06;;;;;;;6.70;2.55;;;0.70;99.90;;;;;;5094461;28;20507;-68
2021/12/03 01:23:32;;;;;;;8.57;3.05;;;0.60;99.90;;;;;;5094865;28;20060;-68
2021/12/03 01:25:58;;;;;;;5.72;2.50;;;0.60;99.90;;;;;;5094679;28;20048;-69
2021/12/03 01:28:26;;;;;;;6.30;2.70;;;0.60;99.90;;;;;;5094647;28;20859;-68
2021/12/03 01:30:56;;;;;;;6.40;2.80;;;0.60;99.90;;;;;;5094565;28;20179;-70
2021/12/03 01:33:23;;;;;;;7.80;3.30;;;0.60;99.90;;;;;;5093811;28;20044;-69
2021/12/03 01:35:48;;;;;;;6.60;2.95;;;0.60;99.90;;;;;;5093916;28;20046;-69
2021/12/03 01:38:14;;;;;;;6.82;3.05;;;0.60;99.90;;;;;;5093331;28;20052;-69
2021/12/03 01:40:41;;;;;;;6.78;3.35;;;0.60;99.90;;;;;;5075611;28;20047;-68
2021/12/03 01:43:09;;;;;;;6.85;3.10;;;0.60;99.90;;;;;;5094085;28;20047;-69
2021/12/03 01:45:38;;;;;;;7.07;2.95;;;0.60;99.90;;;;;;5094099;28;20126;-68
2021/12/03 01:48:05;;;;;;;5.03;2.78;;;0.60;99.90;;;;;;5094240;28;20051;-68
2021/12/03 01:50:38;;;;;;;8.82;2.92;;;0.70;99.90;;;;;;5094267;28;20092;-68
2021/12/03 01:53:05;;;;;;;5.25;2.55;;;0.60;99.90;;;;;;5094077;28;20028;-70
2021/12/03 01:55:31;;;;;;;7.05;2.72;;;0.60;99.90;;;;;;5094094;28;20062;-69
2021/12/03 01:57:57;;;;;;;6.95;2.47;;;0.60;99.90;;;;;;5093999;28;20035;-68
2021/12/03 02:00:38;;;;;;;7.10;2.53;;;0.50;99.90;;;;;;5093831;28;20071;-68
2021/12/03 02:03:06;;;;;;;;;;;0.60;99.90;;;;;;5094238;28;20036;-71
2021/12/03 02:05:32;;;;;;;9.82;2.80;;;0.60;99.90;;;;;;5093640;28;19908;-68
2021/12/03 02:07:58;;;;;;;6.18;2.90;;;0.60;99.90;;;;;;5093665;28;20035;-68
2021/12/03 02:10:24;;;;;;;7.85;3.05;;;0.60;99.90;;;;;;5075488;28;20048;-68
2021/12/03 02:12:50;;;;;;;9.73;3.15;;;0.60;99.90;;;;;;5093895;28;20471;-68
2021/12/03 02:15:17;;;;;;;4.40;2.67;;;0.60;99.90;;;;;;5093673;28;20048;-69
2021/12/03 02:17:43;;;;;;;7.07;3.10;;;0.60;99.90;;;;;;5093628;28;20055;-68
2021/12/03 02:20:11;;;;;;;7.40;3.03;;;0.60;99.90;;;;;;5093368;28;20074;-68
2021/12/03 02:22:38;;;;;;;6.72;3.03;;;0.60;99.90;;;;;;5093553;28;20040;-68
2021/12/03 02:25:07;;;;;;;6.45;2.53;;;0.60;99.90;;;;;;5093831;28;20092;-69
2021/12/03 02:27:33;;;;;;;4.90;2.60;;;0.60;99.90;;;;;;5092295;28;20119;-68
2021/12/03 02:29:59;;;;;;;5.18;2.80;;;0.60;99.90;;;;;;5093599;28;20068;-68
2021/12/03 02:32:24;;;;;;;4.40;2.50;;;0.50;99.90;;;;;;5093565;28;20119;-69
2021/12/03 02:34:50;;;;;;;6.28;2.65;;;0.50;99.90;;;;;;5093294;28;20119;-68
2021/12/03 02:37:16;;;;;;;7.85;2.90;;;0.60;99.90;;;;;;5093387;28;20047;-68
2021/12/03 02:39:42;;;;;;;8.13;2.63;;;0.60;99.90;;;;;;5093283;28;20043;-68
2021/12/03 02:42:08;;;;;;;4.40;2.70;;;0.60;99.90;;;;;;5093181;28;20036;-69
2021/12/03 02:44:34;;;;;;;5.22;2.90;;;0.60;99.90;;;;;;5093135;28;20044;-68
2021/12/03 02:46:59;;;;;;;6.35;3.00;;;0.60;99.90;;;;;;5075424;28;20502;-68
2021/12/03 02:49:25;;;;;;;5.40;2.63;;;0.50;99.90;;;;;;5093261;28;20537;-69
2021/12/03 02:51:51;;;;;;;4.78;2.38;;;0.50;99.90;;;;;;5092831;28;20048;-69
2021/12/03 02:54:17;;;;;;;5.22;2.60;;;0.50;99.90;;;;;;5092882;28;20053;-68
2021/12/03 02:56:42;;;;;;;5.53;2.25;;;0.50;99.90;;;;;;5091030;28;20043;-68
2021/12/03 02:59:08;;;;;;;4.55;2.53;;;0.50;99.90;;;;;;5084937;28;20139;-67
2021/12/03 03:01:35;;;;;;;3.90;2.42;;;0.50;99.90;;;;;;5071612;28;20047;-69
2021/12/03 03:04:01;;;;;;;3.20;2.30;;;0.50;99.90;;;;;;5054721;28;20037;-69
2021/12/03 03:06:26;;;;;;;2.85;2.20;;;0.50;99.90;;;;;;5072665;28;20368;-68
2021/12/03 03:08:52;;;;;;;3.95;2.63;;;0.60;99.90;;;;;;5091219;28;20054;-68
2021/12/03 03:11:21;;;;;;;6.47;2.40;;;0.60;99.90;;;;;;5113100;28;20048;-68
2021/12/03 03:13:47;;;;;;;7.00;2.47;;;0.60;99.90;;;;;;5081581;28;20050;-68
2021/12/03 03:16:15;;;;;;;5.35;2.60;;;0.60;99.90;;;;;;5092817;28;20396;-68
2021/12/03 03:18:41;;;;;;;5.40;2.85;;;0.50;99.90;;;;;;5075934;28;20445;-68
2021/12/03 03:21:07;;;;;;;6.82;2.90;;;0.50;99.90;;;;;;5078812;28;20415;-68
2021/12/03 03:23:35;;;;;;;6.75;2.70;;;0.50;99.90;;;;;;5096750;28;20044;-68
2021/12/03 03:26:01;;;;;;;4.38;2.40;;;0.40;99.90;;;;;;5096692;28;20411;-68
2021/12/03 03:28:27;;;;;;;4.60;2.70;;;0.40;99.90;;;;;;5096867;28;20028;-69
2021/12/03 03:30:56;;;;;;;8.80;2.85;;;0.40;99.90;;;;;;5096749;28;20043;-68
2021/12/03 03:33:23;;;;;;;6.28;3.67;;;0.40;99.90;;;;;;5096681;28;20066;-68
2021/12/03 03:35:49;;;;;;;5.85;2.78;;;0.40;99.90;;;;;;5096585;28;20040;-68
2021/12/03 03:38:16;;;;;;;7.53;3.45;;;0.40;99.90;;;;;;5096555;28;20040;-68
2021/12/03 03:40:43;;;;;;;6.63;3.03;;;0.40;99.90;;;;;;5096497;28;20059;-68
2021/12/03 03:43:09;;;;;;;6.45;2.70;;;0.40;99.90;;;;;;5096398;28;20056;-68
2021/12/03 03:45:36;;;;;;;4.40;3.00;;;0.40;99.90;;;;;;5096158;28;20096;-68
2021/12/03 03:48:03;;;;;;;7.20;3.65;;;0.40;99.90;;;;;;5096572;28;20036;-68
2021/12/03 03:50:30;;;;;;;6.80;3.00;;;0.30;99.90;;;;;;5096600;28;20502;-68
2021/12/03 03:52:56;;;;;;;5.15;3.38;;;0.40;99.90;;;;;;5096560;28;20035;-68
2021/12/03 03:55:23;;;;;;;6.75;3.30;;;0.30;99.90;;;;;;5096473;28;20039;-69
2021/12/03 03:57:52;;;;;;;7.63;3.58;;;0.30;99.90;;;;;;5096398;28;20119;-69
2021/12/03 04:00:29;;;;;;;5.68;3.58;;;0.30;99.90;;;;;;5095954;28;20040;-69
2021/12/03 04:02:55;;;;;;;7.20;4.40;;;0.40;99.90;;;;;;5096117;28;20042;-68
2021/12/03 04:05:21;;;;;;;6.00;3.55;;;0.40;99.90;;;;;;5096132;28;20039;-69
2021/12/03 04:07:47;;;;;;;5.95;3.25;;;0.40;99.90;;;;;;5096219;28;20040;-69
2021/12/03 04:10:13;;;;;;;7.10;3.00;;;0.40;99.90;;;;;;5096016;28;20071;-69
2021/12/03 04:12:39;;;;;;;5.30;2.47;;;0.30;99.90;;;;;;5076757;28;20131;-68
2021/12/03 04:15:08;;;;;;;9.95;2.90;;;0.30;99.90;;;;;;5094874;28;20486;-69
2021/12/03 04:17:34;;;;;;;7.50;3.00;;;0.40;99.90;;;;;;5095229;28;20044;-68
2021/12/03 04:20:00;;;;;;;4.63;3.03;;;0.40;99.90;;;;;;5094922;28;20047;-68
2021/12/03 04:22:26;;;;;;;3.67;2.33;;;0.40;99.90;;;;;;5094727;28;20447;-70
2021/12/03 04:24:54;;;;;;;4.45;2.75;;;0.40;99.90;;;;;;5094860;28;20126;-68
2021/12/03 04:27:20;;;;;;;5.05;3.40;;;0.50;99.90;;;;;;5093317;28;20553;-70
2021/12/03 04:29:46;;;;;;;6.10;3.47;;;0.40;99.90;;;;;;5094069;28;20032;-68
2021/12/03 04:32:12;;;;;;;8.70;3.67;;;0.50;99.90;;;;;;5094495;28;20047;-69
2021/12/03 04:34:39;;;;;;;6.18;3.60;;;0.40;99.90;;;;;;5094677;28;20088;-69
2021/12/03 04:37:04;;;;;;;8.98;4.22;;;0.40;99.90;;;;;;5094529;28;20067;-70
2021/12/03 04:39:31;;;;;;;5.30;3.65;;;0.50;99.90;;;;;;5094386;28;20079;-68
2021/12/03 04:41:56;;;;;;;6.28;3.08;;;0.50;99.90;;;;;;5094757;28;20056;-68
2021/12/03 04:44:22;;;;;;;5.82;3.50;;;0.50;99.90;;;;;;5094391;28;20096;-69
2021/12/03 04:46:48;;;;;;;9.70;4.68;;;0.50;99.90;;;;;;5094463;28;20039;-68
2021/12/03 04:49:14;;;;;;;10.55;6.40;;;0.40;99.90;;;;;;5094258;28;20047;-68
2021/12/03 04:51:40;;;;;;;8.65;5.15;;;0.40;99.90;;;;;;5076181;28;20067;-69
2021/12/03 04:54:07;;;;;;;8.73;4.57;;;0.40;99.90;;;;;;5075771;28;20074;-68
2021/12/03 04:56:33;;;;;;;8.10;4.60;;;0.40;99.90;;;;;;5093831;28;20043;-68
2021/12/03 04:58:59;;;;;;;7.57;4.82;;;0.50;99.90;;;;;;5094065;28;20024;-68
2021/12/03 05:01:25;;;;;;;8.50;4.20;;;0.50;99.90;;;;;;5093962;28;20131;-69
2021/12/03 05:03:50;;;;;;;7.60;4.13;;;0.40;99.90;;;;;;5093496;28;20048;-68
2021/12/03 05:06:28;;;;;;;6.85;3.55;;;0.40;99.90;;;;;;5093823;28;20380;-68
2021/12/03 05:08:54;;;;;;;7.15;4.18;;;0.30;99.90;;;;;;5094079;28;20556;-69
2021/12/03 05:11:19;;;;;;;8.48;3.60;;;0.20;99.90;;;;;;5050576;28;1246952;-69
2021/12/03 05:13:46;;;;;;;7.32;3.75;;;0.20;99.90;;;;;;5094694;28;20028;-69
2021/12/03 05:16:12;;;;;;;8.65;4.05;;;0.30;99.90;;;;;;5076390;28;20047;-69
2021/12/03 05:18:37;;;;;;;6.95;4.00;;;0.20;99.90;;;;;;5094745;28;20614;-68
2021/12/03 05:21:03;;;;;;;5.82;3.60;;;0.20;99.90;;;;;;5094910;28;20490;-69
2021/12/03 05:23:31;;;;;;;5.43;4.00;;;0.20;99.90;;;;;;5094623;28;20032;-68
2021/12/03 05:25:58;;;;;;;6.43;4.00;;;0.20;99.90;;;;;;5094880;28;20040;-68
2021/12/03 05:28:25;;;;;;;10.43;3.90;;;0.30;99.90;;;;;;5094452;28;20036;-69
2021/12/03 05:30:51;;;;;;;8.23;4.15;;;0.30;99.90;;;;;;5094293;28;20032;-68
2021/12/03 05:33:19;;;;;;;9.57;4.30;;;0.30;99.90;;;;;;5094530;28;20026;-69
2021/12/03 05:35:45;;;;;;;6.03;3.65;;;0.30;99.90;;;;;;5094494;28;20032;-68
2021/12/03 05:38:11;;;;;;;7.60;3.88;;;0.30;99.90;;;;;;5094436;28;20035;-68
2021/12/03 05:40:37;;;;;;;7.60;3.45;;;0.30;99.90;;;;;;5094043;28;20044;-69
2021/12/03 05:43:04;;;;;;;6.72;3.58;;;0.30;99.90;;;;;;5075890;28;20055;-69
2021/12/03 05:45:31;;;;;;;5.65;3.75;;;0.20;99.90;;;;;;5094396;28;20132;-68
2021/12/03 05:47:58;;;;;;;6.57;3.47;;;0.30;99.90;;;;;;5076043;28;20407;-69
2021/12/03 05:50:24;;;;;;;10.38;3.88;;;0.30;99.90;;;;;;5094170;28;20130;-68
2021/12/03 05:52:52;;;;;;;7.82;3.97;;;0.20;99.90;;;;;;5094241;28;20028;-68
2021/12/03 05:55:19;;;;;;;7.30;4.05;;;0.20;99.90;;;;;;5094264;28;20044;-68
2021/12/03 05:57:45;;;;;;;6.45;3.40;;;0.20;99.90;;;;;;5075915;28;20040;-68
2021/12/03 06:00:26;;;;;;;13.70;8.40;;;0.20;99.90;;;;;;5093653;28;20035;-69
2021/12/03 06:02:53;;;;;;;18.83;12.20;;;0.30;99.90;;;;;;5093936;28;20032;-69
2021/12/03 06:05:23;;;;;;;7.07;4.00;;;0.30;99.90;;;;;;5093950;28;20043;-68
2021/12/03 06:07:49;;;;;;;5.30;3.20;;;0.20;99.90;;;;;;5094073;28;20036;-69
2021/12/03 06:10:15;;;;;;;6.15;3.97;;;0.20;99.90;;;;;;5093651;28;20085;-69
2021/12/03 06:12:42;;;;;;;7.15;4.18;;;0.20;99.90;;;;;;5093484;28;20032;-68
2021/12/03 06:15:08;;;;;;;6.30;3.95;;;0.10;99.90;;;;;;5075156;28;20154;-69
2021/12/03 06:17:34;;;;;;;7.75;3.83;;;0.20;99.90;;;;;;5092662;28;20043;-69
2021/12/03 06:20:00;;;;;;;8.35;4.45;;;0.10;99.90;;;;;;5093812;28;20364;-69
2021/12/03 06:22:26;;;;;;;14.88;4.65;;;0.10;99.90;;;;;;5093667;28;20054;-70
2021/12/03 06:24:51;;;;;;;8.77;4.53;;;0.10;99.90;;;;;;5093695;28;20122;-68
2021/12/03 06:27:17;;;;;;;7.68;4.53;;;0.10;99.90;;;;;;5093578;28;20499;-68
2021/12/03 06:29:43;;;;;;;10.60;4.55;;;0.10;99.90;;;;;;5093304;28;20052;-68
2021/12/03 06:32:10;;;;;;;9.52;5.35;;;0.10;99.90;;;;;;5093038;28;20048;-69
2021/12/03 06:34:37;;;;;;;10.48;5.88;;;0.10;99.90;;;;;;5090949;28;20089;-70
2021/12/03 06:37:04;;;;;;;8.20;4.70;;;0.10;99.90;;;;;;5076431;28;20040;-69
2021/12/03 06:39:29;;;;;;;9.48;5.22;;;0.10;99.90;;;;;;5082131;28;20040;-68
2021/12/03 06:41:55;;;;;;;6.90;4.82;;;0.00;99.90;;;;;;5072981;28;20052;-69
2021/12/03 06:44:22;;;;;;;8.45;3.95;;;0.00;99.90;;;;;;5075352;28;20024;-68
2021/12/03 06:46:48;;;;;;;6.53;4.50;;;0.00;99.90;;;;;;5073646;28;20039;-68
2021/12/03 06:49:14;;;;;;;6.78;4.15;;;0.00;99.90;;;;;;5091946;28;20044;-69
2021/12/03 06:51:42;;;;;;;6.88;3.35;;;0.00;99.90;;;;;;5092053;28;20410;-69
2021/12/03 06:54:10;;;;;;;9.10;5.60;;;-0.10;99.90;;;;;;5092520;28;20044;-69
2021/12/03 06:56:48;;;;;;;10.77;5.45;;;-0.10;99.90;;;;;;5093318;28;20038;-68
2021/12/03 06:59:16;;;;;;;5.57;4.90;;;-0.10;99.90;;;;;;5074213;28;20036;-69
2021/12/03 07:01:42;;;;;;;8.98;6.53;;;-0.20;99.90;;;;;;5074398;28;20457;-69
2021/12/03 07:04:08;;;;;;;13.95;5.93;;;-0.20;99.90;;;;;;5092833;28;20036;-69
2021/12/03 07:06:34;;;;;;;6.57;4.75;;;-0.10;99.90;;;;;;5074474;28;20503;-68
2021/12/03 07:08:59;;;;;;;7.78;4.18;;;-0.30;99.90;;;;;;5089692;28;20114;-69
2021/12/03 07:11:25;;;;;;;9.75;4.55;;;-0.40;99.90;;;;;;5079136;28;20079;-68
2021/12/03 07:13:52;;;;;;;6.65;4.40;;;-0.40;99.90;;;;;;5063706;28;20372;-70
2021/12/03 07:16:18;;;;;;;7.45;4.05;;;-0.40;99.90;;;;;;5075657;28;20399;-68
2021/12/03 07:18:43;;;;;;;6.80;4.47;;;-0.40;99.90;;;;;;5073270;28;20131;-69
2021/12/03 07:21:10;;;;;;;8.85;4.60;;;-0.40;99.90;;;;;;5072572;28;20135;-69
2021/12/03 07:23:36;;;;;;;10.52;4.65;;;-0.50;99.90;;;;;;5085615;28;20032;-69
2021/12/03 07:26:03;;;;;;;6.18;4.32;;;-0.50;99.90;;;;;;5090006;28;20040;-68
2021/12/03 07:28:30;;;;;;;7.28;3.75;;;-0.50;99.90;;;;;;5091533;28;20108;-69
2021/12/03 07:30:56;;;;;;;7.13;4.43;;;-0.40;99.90;;;;;;5090254;28;20040;-68
2021/12/03 07:33:22;;;;;;;8.00;4.72;;;-0.30;99.90;;;;;;5090055;28;20544;-69
2021/12/03 07:35:48;;;;;;;8.35;4.43;;;-0.20;99.90;;;;;;5077113;28;20071;-69
2021/12/03 07:38:17;;;;;;;6.95;4.28;;;0.00;99.90;;;;;;5090838;28;20040;-69
2021/12/03 07:40:45;;;;;;;10.75;5.03;;;0.10;99.90;;;;;;5091344;28;20499;-69
2021/12/03 07:43:11;;;;;;;8.02;4.82;;;0.50;99.90;;;;;;5069908;28;20537;-69
2021/12/03 07:45:37;;;;;;;7.40;4.93;;;0.30;99.90;;;;;;5073991;28;20075;-69
2021/12/03 07:48:04;;;;;;;8.48;5.05;;;0.30;99.90;;;;;;5072413;28;20040;-69
2021/12/03 07:50:35;;;;;;;14.10;6.15;;;0.40;99.90;;;;;;5072566;28;20044;-70
2021/12/03 07:53:02;;;;;;;8.02;6.40;;;0.40;99.90;;;;;;5071391;28;20045;-70
2021/12/03 07:55:28;;;;;;;10.85;7.03;;;0.50;99.90;;;;;;5059830;28;20052;-71
2021/12/03 07:57:55;;;;;;;10.25;6.53;;;0.60;99.90;;;;;;5079060;28;20537;-70
2021/12/03 08:00:21;;;;;;;8.38;4.38;;;0.80;99.90;;;;;;5086942;28;20050;-70
2021/12/03 08:02:47;;;;;;;10.90;4.43;;;0.80;99.90;;;;;;5089908;28;20147;-71
2021/12/03 08:05:14;;;;;;;8.70;4.63;;;;;;;;;;5089776;28;20040;-71
2021/12/03 08:07:40;;;;;;;9.35;5.03;;;1.00;99.90;;;;;;5093540;28;20051;-71
2021/12/03 08:10:06;;;;;;;10.70;5.15;;;1.00;99.90;;;;;;5093528;28;20108;-71
2021/12/03 08:12:32;;;;;;;11.43;4.97;;;1.50;99.90;;;;;;5094450;28;20032;-71
2021/12/03 08:14:58;;;;;;;139.65;79.97;;;1.40;99.90;;;;;;5095959;28;20047;-69
2021/12/03 08:17:24;;;;;;;11.30;7.07;;;1.70;99.90;;;;;;5077887;28;20048;-70
2021/12/03 08:19:50;;;;;;;8.85;5.03;;;1.80;99.90;;;;;;5096009;28;20403;-70
2021/12/03 08:22:15;;;;;;;9.05;4.57;;;2.00;99.90;;;;;;5095970;28;20047;-70
2021/12/03 08:24:41;;;;;;;12.07;5.68;;;1.70;99.90;;;;;;5095968;28;20036;-70
2021/12/03 08:27:07;;;;;;;7.75;4.63;;;1.80;99.90;;;;;;5077817;28;20042;-71
2021/12/03 08:29:33;;;;;;;8.38;5.15;;;1.80;99.90;;;;;;5095602;28;20043;-71
2021/12/03 08:31:59;;;;;;;18.98;12.02;;;2.20;99.90;;;;;;5095671;28;20035;-70
2021/12/03 08:34:25;;;;;;;29.42;21.13;;;2.30;99.90;;;;;;5095768;28;20048;-72
2021/12/03 08:36:51;;;;;;;12.80;6.30;;;2.40;99.90;;;;;;5095029;28;20441;-70
2021/12/03 08:39:16;;;;;;;12.05;6.60;;;2.40;99.90;;;;;;5095063;28;20040;-70
2021/12/03 08:41:42;;;;;;;13.13;6.28;;;2.60;99.90;;;;;;5095374;28;20055;-70
2021/12/03 08:44:08;;;;;;;17.90;15.45;;;2.70;99.90;;;;;;5095669;28;20044;-71
2021/12/03 08:46:38;;;;;;;31.67;23.67;;;2.30;99.90;;;;;;5077507;28;20036;-71
2021/12/03 08:49:15;;;;;;;10.68;6.90;;;2.60;99.90;;;;;;5095340;28;20115;-71
2021/12/03 08:56:52;;;;;;;15.45;6.03;;;2.70;99.90;;;;;;5075048;28;20043;-70
2021/12/03 08:59:18;;;;;;;8.85;4.97;;;2.80;99.90;;;;;;5057262;28;20032;-71
2021/12/03 09:01:45;;;;;;;13.25;5.25;;;2.30;99.90;;;;;;5056511;28;20465;-70
2021/12/03 09:04:13;;;;;;;8.70;4.72;;;2.40;99.90;;;;;;5078412;28;20424;-71
2021/12/03 09:06:39;;;;;;;7.93;4.40;;;2.30;99.90;;;;;;5074943;28;20079;-71
2021/12/03 09:09:07;;;;;;;8.50;4.80;;;2.40;99.90;;;;;;5074824;28;20090;-71
2021/12/03 09:11:37;;;;;;;7.95;4.38;;;2.60;99.90;;;;;;5074534;28;20495;-70
2021/12/03 09:14:13;;;;;;;7.65;4.75;;;2.30;99.90;;;;;;5074546;28;20032;-70
2021/12/03 09:16:38;;;;;;;8.95;4.80;;;2.40;99.90;;;;;;5073365;28;20055;-71
2021/12/03 09:19:11;;;;;;;6.55;3.83;;;2.80;99.90;;;;;;5074699;28;20049;-71
2021/12/03 09:21:37;;;;;;;8.15;4.60;;;3.10;99.90;;;;;;5074627;28;20530;-71
2021/12/03 09:26:29;;;;;;;7.72;4.18;;;3.40;99.90;;;;;;5074525;28;20494;-71
2021/12/03 09:29:04;;;;;;;7.32;4.45;;;3.20;99.90;;;;;;5074586;28;20029;-70
2021/12/03 09:31:32;;;;;;;9.07;4.57;;;3.10;99.90;;;;;;5074213;28;20052;-73
2021/12/03 09:33:58;;;;;;;10.55;5.53;;;3.10;99.90;;;;;;5070664;28;20127;-71
2021/12/03 09:36:24;;;;;;;9.82;5.30;;;3.50;99.90;;;;;;5073306;28;20166;-71
2021/12/03 09:38:50;;;;;;;8.07;4.57;;;3.00;99.90;;;;;;5074626;28;20044;-71
2021/12/03 09:41:19;;;;;;;10.60;5.88;;;3.30;99.90;;;;;;5074213;28;20053;-70
2021/12/03 09:43:48;;;;;;;8.57;4.82;;;3.10;99.90;;;;;;5074194;28;20089;-70
2021/12/03 09:46:19;;;;;;;12.23;5.07;;;3.30;99.90;;;;;;5056504;28;20043;-70
2021/12/03 09:54:28;;;;;;;7.53;4.45;;;4.00;99.90;;;;;;5073889;28;20082;-74
2021/12/03 09:57:09;;;;;;;11.35;4.97;;;3.80;99.90;;;;;;5082312;28;20570;-72
2021/12/03 09:59:59;;;;;;;6.53;4.10;;;3.60;99.90;;;;;;5075067;28;20109;-71
2021/12/03 10:13:16;;;;;;;7.65;4.13;;;4.40;99.90;;;;;;5073485;28;20056;-71
2021/12/03 10:15:57;;;;;;;6.18;4.10;;;3.80;99.90;;;;;;5073438;28;20036;-71
2021/12/03 10:18:46;;;;;;;6.70;4.10;;;4.20;99.90;;;;;;5073485;28;20044;-71
2021/12/03 10:22:08;;;;;;;7.30;4.07;;;4.30;99.90;;;;;;5055376;28;20442;-71
2021/12/03 10:24:42;;;;;;;7.77;4.23;;;4.60;99.90;;;;;;5060026;28;20068;-71
2021/12/03 10:30:55;;;;;;;9.43;4.35;;;3.90;99.90;;;;;;4972033;28;20149;-71
2021/12/03 10:38:48;;;;;;;8.82;4.97;;;4.80;99.90;;;;;;5092042;28;20130;-73
2021/12/03 10:57:18;;;;;;;9.27;4.70;;;5.30;99.90;;;;;;5090996;28;20030;-74
2021/12/03 11:00:24;;;;;;;8.90;4.68;;;5.30;99.90;;;;;;5090229;28;20032;-75
2021/12/03 12:57:54;;;;;;;7.15;2.92;;;4.70;99.90;;;;;;5074788;28;20039;-71
2021/12/03 13:11:36;;;;;;;81.00;54.20;;;5.10;99.90;;;;;;5092932;28;20039;-72
2021/12/03 14:11:54;;;;;;;7.55;3.40;;;4.80;99.90;;;;;;5071318;28;20581;-72
2021/12/03 14:40:20;;;;;;;47.65;19.60;;;4.40;99.90;;;;;;5069256;28;20037;-70
2021/12/03 14:48:31;;;;;;;9.52;3.97;;;4.30;99.90;;;;;;5070928;28;20094;-71
2021/12/03 14:51:26;;;;;;;10.98;3.60;;;4.40;99.90;;;;;;5088417;28;20040;-71
2021/12/03 14:57:17;;;;;;;17.52;4.45;;;4.30;99.90;;;;;;5090953;28;20097;-70
2021/12/03 15:00:14;;;;;;;22.48;9.57;;;4.40;99.90;;;;;;5089662;28;20047;-71
2021/12/03 15:08:26;;;;;;;31.17;13.82;;;4.00;99.90;;;;;;5091747;28;20047;-71
2021/12/03 15:17:29;;;;;;;32.92;14.38;;;3.70;99.90;;;;;;5095274;28;20047;-70
2021/12/03 15:24:47;;;;;;;25.58;11.23;;;3.90;99.90;;;;;;5096615;28;20028;-70
2021/12/03 15:32:17;;;;;;;52.13;23.67;;;3.70;99.90;;;;;;5075636;28;20048;-70
2021/12/03 15:34:57;;;;;;;37.92;16.92;;;3.60;99.90;;;;;;5074219;28;20510;-70
2021/12/03 16:03:30;;;;;;;18.15;9.35;;;3.40;99.90;;;;;;5075772;28;20041;-73
2021/12/03 16:04:26;;;;;;;15.38;5.93;;;3.70;99.90;;;;;;5075443;28;20387;-72
2021/12/03 16:15:36;;;;;;;15.55;7.00;;;3.30;99.90;;;;;;5095823;28;20063;-70
2021/12/03 16:52:49;;;;;;;19.85;9.77;;;3.00;99.90;;;;;;5095686;28;20414;-70
2021/12/03 16:55:16;;;;;;;16.77;8.20;;;3.00;99.90;;;;;;5095497;28;20047;-70
2021/12/03 16:57:44;;;;;;;12.90;7.03;;;2.90;99.90;;;;;;5095786;28;20036;-69
2021/12/03 17:00:21;;;;;;;12.10;7.60;;;2.90;99.90;;;;;;5095391;28;20051;-70
2021/12/03 17:02:55;;;;;;;14.98;7.25;;;2.80;99.90;;;;;;5095314;28;20044;-72
2021/12/03 17:47:56;;;;;;;13.10;8.68;;;2.40;99.90;;;;;;5093868;28;20924;-71
2021/12/03 18:00:57;;;;;;;17.40;8.00;;;2.40;99.90;;;;;;5107523;28;20509;-72
2021/12/03 18:03:41;;;;;;;14.15;7.95;;;2.40;99.90;;;;;;5112396;28;20573;-76
2021/12/03 18:12:01;;;;;;;16.55;8.50;;;2.40;99.90;;;;;;5075784;28;20100;-73
2021/12/03 18:14:57;;;;;;;14.45;7.88;;;2.40;99.90;;;;;;5093102;28;20036;-72
2021/12/03 18:47:09;;;;;;;15.30;7.25;;;2.60;99.90;;;;;;5091007;28;20040;-71
2021/12/03 18:52:05;;;;;;;14.20;7.65;;;2.50;99.90;;;;;;5093405;28;20035;-72
2021/12/03 18:54:42;;;;;;;10.73;6.43;;;2.50;99.90;;;;;;5091173;28;20048;-70
2021/12/03 18:57:11;;;;;;;14.45;7.85;;;2.60;99.90;;;;;;5073568;28;20077;-70
2021/12/03 18:59:51;;;;;;;19.30;9.90;;;2.60;99.90;;;;;;5090426;28;20149;-70
2021/12/03 19:02:17;;;;;;;21.20;10.57;;;2.50;99.90;;;;;;5089905;28;20066;-71
2021/12/03 19:07:26;;;;;;;16.38;8.65;;;2.40;99.90;;;;;;5090790;28;20056;-70
2021/12/03 19:09:55;;;;;;;17.80;10.05;;;2.40;99.90;;;;;;5091924;28;20044;-71
2021/12/03 19:12:24;;;;;;;23.70;10.55;;;2.30;99.90;;;;;;5107490;28;20031;-70
2021/12/03 19:14:56;;;;;;;17.60;9.95;;;2.30;99.90;;;;;;5110082;28;20042;-72
2021/12/03 19:17:23;;;;;;;30.23;14.60;;;2.30;99.90;;;;;;5099153;28;20059;-72
2021/12/03 19:19:54;;;;;;;17.42;9.05;;;2.30;99.90;;;;;;5101381;28;20538;-72
2021/12/03 19:22:22;;;;;;;15.93;10.13;;;2.20;99.90;;;;;;5103242;28;20070;-72
2021/12/03 19:24:48;;;;;;;18.30;11.15;;;2.20;99.90;;;;;;5101773;28;20044;-73
2021/12/03 19:27:14;;;;;;;17.30;10.90;;;2.10;99.90;;;;;;5101724;28;20122;-73
2021/12/03 19:29:43;;;;;;;16.15;11.27;;;2.00;99.90;;;;;;5083458;28;20145;-73
2021/12/03 19:32:09;;;;;;;20.52;12.30;;;1.90;99.90;;;;;;5101100;28;20040;-72
2021/12/03 19:34:35;;;;;;;22.02;12.65;;;1.90;99.90;;;;;;5102119;28;20048;-73
2021/12/03 19:37:02;;;;;;;17.35;12.02;;;1.80;99.90;;;;;;5101980;28;20040;-73
2021/12/03 19:39:28;;;;;;;23.52;12.80;;;1.80;99.90;;;;;;5099822;28;20070;-71
2021/12/03 19:44:41;;;;;;;27.50;14.07;;;1.70;99.90;;;;;;5098948;28;20101;-71
2021/12/03 19:47:09;;;;;;;22.63;14.30;;;1.70;99.90;;;;;;5098913;28;20040;-70
2021/12/03 19:49:45;;;;;;;23.95;14.43;;;1.70;99.90;;;;;;5101656;28;20118;-71
2021/12/03 19:52:48;;;;;;;22.42;12.95;;;1.70;99.90;;;;;;5095541;28;20040;-72
2021/12/03 19:55:13;;;;;;;23.42;13.88;;;1.70;99.90;;;;;;5095846;28;20039;-73
2021/12/03 19:57:39;;;;;;;19.75;13.18;;;1.70;99.90;;;;;;5082633;28;20036;-72
2021/12/03 20:00:07;;;;;;;19.90;12.70;;;1.70;99.90;;;;;;5095014;28;20068;-71
2021/12/03 20:02:32;;;;;;;23.33;13.93;;;1.70;99.90;;;;;;5099988;28;20064;-71
2021/12/03 20:04:59;;;;;;;22.13;13.07;;;1.70;99.90;;;;;;5106348;28;20040;-71
2021/12/03 20:07:25;;;;;;;22.75;12.88;;;1.70;99.90;;;;;;5089569;28;20142;-71
2021/12/03 20:10:03;;;;;;;20.95;12.68;;;1.70;99.90;;;;;;5114175;28;20114;-70
2021/12/03 20:12:32;;;;;;;20.85;11.90;;;1.70;99.90;;;;;;5087505;28;20035;-71
2021/12/03 20:14:58;;;;;;;16.88;11.77;;;1.70;99.90;;;;;;5063324;28;20115;-71
2021/12/03 20:17:35;;;;;;;22.67;12.52;;;1.80;99.90;;;;;;5072372;28;20071;-72
2021/12/03 20:20:03;;;;;;;16.27;11.27;;;1.80;99.90;;;;;;5089597;28;20048;-73
2021/12/03 20:27:46;;;;;;;15.63;10.63;;;1.90;99.90;;;;;;5097168;28;20040;-72
2021/12/03 20:30:22;;;;;;;16.65;9.48;;;1.90;99.90;;;;;;5092529;28;20047;-73
2021/12/03 20:35:58;;;;;;;38.22;27.00;;;2.20;99.90;;;;;;5101604;28;20574;-71
2021/12/03 20:38:28;;;;;;;15.57;10.02;;;2.20;99.90;;;;;;5098313;28;20048;-77
2021/12/03 20:40:57;;;;;;;15.20;9.07;;;2.20;99.90;;;;;;5101388;28;20114;-71